sensor_id;sensor_type;location;lat;lon;timestamp;P1;durP1;ratioP1;P2;durP2;ratioP2
65535;SDS011;52145;49.342;9.116;2023-08-12T00:00:34;9.57;;;4.32;;
65535;SDS011;52145;49.342;9.116;2023-08-12T00:03:01;8.23;;;3.58;;
65535;SDS011;52145;49.342;9.116;2023-08-12T00:05:27;7.88;;;4.00;;
65535;SDS011;52145;49.342;9.116;2023-08-12T00:07:53;8.32;;;3.95;;
65535;SDS011;52145;49.342;9.116;2023-08-12T00:10:19;8.27;;;4.10;;
65535;SDS011;52145;49.342;9.116;2023-08-12T00:12:45;6.05;;;3.90;;
65535;SDS011;52145;49.342;9.116;2023-08-12T00:15:11;6.22;;;4.10;;
65535;SDS011;52145;49.342;9.116;2023-08-12T00:17:37;7.60;;;4.00;;
65535;SDS011;52145;49.342;9.116;2023-08-12T00:20:06;5.60;;;3.70;;
65535;SDS011;52145;49.342;9.116;2023-08-12T00:22:33;8.30;;;3.85;;
65535;SDS011;52145;49.342;9.116;2023-08-12T00:25:00;7.03;;;3.95;;
65535;SDS011;52145;49.342;9.116;2023-08-12T00:27:26;10.48;;;3.70;;
65535;SDS011;52145;49.342;9.116;2023-08-12T00:29:52;5.80;;;3.72;;
65535;SDS011;52145;49.342;9.116;2023-08-12T00:32:18;6.80;;;3.97;;
65535;SDS011;52145;49.342;9.116;2023-08-12T00:34:44;8.25;;;4.20;;
65535;SDS011;52145;49.342;9.116;2023-08-12T00:37:10;7.53;;;4.03;;
65535;SDS011;52145;49.342;9.116;2023-08-12T00:39:36;7.53;;;3.83;;
65535;SDS011;52145;49.342;9.116;2023-08-12T00:42:02;6.57;;;3.97;;
65535;SDS011;52145;49.342;9.116;2023-08-12T00:44:28;7.38;;;3.95;;
65535;SDS011;52145;49.342;9.116;2023-08-12T00:46:53;6.78;;;4.00;;
65535;SDS011;52145;49.342;9.116;2023-08-12T00:49:20;7.63;;;3.90;;
65535;SDS011;52145;49.342;9.116;2023-08-12T00:51:47;7.47;;;3.47;;
65535;SDS011;52145;49.342;9.116;2023-08-12T00:54:14;7.50;;;3.70;;
65535;SDS011;52145;49.342;9.116;2023-08-12T00:56:40;8.88;;;3.90;;
65535;SDS011;52145;49.342;9.116;2023-08-12T00:59:07;6.47;;;3.90;;
65535;SDS011;52145;49.342;9.116;2023-08-12T01:01:34;13.15;;;4.18;;
65535;SDS011;52145;49.342;9.116;2023-08-12T01:04:00;8.65;;;4.25;;
65535;SDS011;52145;49.342;9.116;2023-08-12T01:06:26;22.77;;;4.72;;
65535;SDS011;52145;49.342;9.116;2023-08-12T01:08:52;10.35;;;4.55;;
65535;SDS011;52145;49.342;9.116;2023-08-12T01:13:58;6.75;;;4.30;;
65535;SDS011;52145;49.342;9.116;2023-08-12T01:16:30;8.30;;;3.60;;
65535;SDS011;52145;49.342;9.116;2023-08-12T01:18:57;8.27;;;4.10;;
65535;SDS011;52145;49.342;9.116;2023-08-12T01:21:24;5.70;;;3.83;;
65535;SDS011;52145;49.342;9.116;2023-08-12T01:23:50;7.10;;;3.40;;
65535;SDS011;52145;49.342;9.116;2023-08-12T01:26:16;5.38;;;3.50;;
65535;SDS011;52145;49.342;9.116;2023-08-12T01:28:42;5.53;;;3.50;;
65535;SDS011;52145;49.342;9.116;2023-08-12T01:31:27;7.40;;;3.63;;
65535;SDS011;52145;49.342;9.116;2023-08-12T01:33:58;7.05;;;4.00;;
65535;SDS011;52145;49.342;9.116;2023-08-12T01:36:26;7.15;;;3.58;;
65535;SDS011;52145;49.342;9.116;2023-08-12T01:38:54;10.88;;;3.60;;
65535;SDS011;52145;49.342;9.116;2023-08-12T01:41:22;8.75;;;4.00;;
65535;SDS011;52145;49.342;9.116;2023-08-12T01:43:48;12.45;;;3.95;;
65535;SDS011;52145;49.342;9.116;2023-08-12T01:46:22;8.85;;;4.40;;
65535;SDS011;52145;49.342;9.116;2023-08-12T01:48:48;6.25;;;3.85;;
65535;SDS011;52145;49.342;9.116;2023-08-12T01:51:14;7.28;;;3.80;;
65535;SDS011;52145;49.342;9.116;2023-08-12T01:53:40;5.85;;;3.20;;
65535;SDS011;52145;49.342;9.116;2023-08-12T01:56:06;7.43;;;3.70;;
65535;SDS011;52145;49.342;9.116;2023-08-12T01:58:32;5.03;;;3.70;;
65535;SDS011;52145;49.342;9.116;2023-08-12T02:00:58;7.07;;;3.85;;
65535;SDS011;52145;49.342;9.116;2023-08-12T02:03:24;10.20;;;4.22;;
65535;SDS011;52145;49.342;9.116;2023-08-12T02:05:50;8.25;;;3.75;;
65535;SDS011;52145;49.342;9.116;2023-08-12T02:08:16;7.80;;;3.78;;
65535;SDS011;52145;49.342;9.116;2023-08-12T02:10:42;5.07;;;3.45;;
65535;SDS011;52145;49.342;9.116;2023-08-12T02:13:08;4.65;;;3.25;;
65535;SDS011;52145;49.342;9.116;2023-08-12T02:15:34;5.55;;;3.65;;
65535;SDS011;52145;49.342;9.116;2023-08-12T02:17:59;8.00;;;3.83;;
65535;SDS011;52145;49.342;9.116;2023-08-12T02:20:26;5.07;;;3.40;;
65535;SDS011;52145;49.342;9.116;2023-08-12T02:22:52;10.88;;;3.83;;
65535;SDS011;52145;49.342;9.116;2023-08-12T02:25:18;6.72;;;3.67;;
65535;SDS011;52145;49.342;9.116;2023-08-12T02:27:44;5.75;;;3.60;;
65535;SDS011;52145;49.342;9.116;2023-08-12T02:30:10;8.10;;;3.88;;
65535;SDS011;52145;49.342;9.116;2023-08-12T02:32:36;5.97;;;3.72;;
65535;SDS011;52145;49.342;9.116;2023-08-12T02:35:02;9.52;;;3.75;;
65535;SDS011;52145;49.342;9.116;2023-08-12T02:37:28;7.40;;;3.83;;
65535;SDS011;52145;49.342;9.116;2023-08-12T02:39:54;7.93;;;4.00;;
65535;SDS011;52145;49.342;9.116;2023-08-12T02:42:20;6.65;;;3.78;;
65535;SDS011;52145;49.342;9.116;2023-08-12T02:44:46;6.25;;;3.85;;
65535;SDS011;52145;49.342;9.116;2023-08-12T02:47:12;8.13;;;3.53;;
65535;SDS011;52145;49.342;9.116;2023-08-12T02:49:38;7.18;;;3.60;;
65535;SDS011;52145;49.342;9.116;2023-08-12T02:52:04;5.60;;;3.50;;
65535;SDS011;52145;49.342;9.116;2023-08-12T02:54:30;8.30;;;4.25;;
65535;SDS011;52145;49.342;9.116;2023-08-12T02:56:56;8.25;;;4.20;;
65535;SDS011;52145;49.342;9.116;2023-08-12T02:59:22;8.88;;;3.78;;
65535;SDS011;52145;49.342;9.116;2023-08-12T03:01:50;5.00;;;3.42;;
65535;SDS011;52145;49.342;9.116;2023-08-12T03:04:16;7.18;;;3.40;;
65535;SDS011;52145;49.342;9.116;2023-08-12T03:06:41;6.85;;;3.80;;
65535;SDS011;52145;49.342;9.116;2023-08-12T03:09:07;8.48;;;3.95;;
65535;SDS011;52145;49.342;9.116;2023-08-12T03:11:33;6.53;;;4.00;;
65535;SDS011;52145;49.342;9.116;2023-08-12T03:13:59;5.47;;;3.80;;
65535;SDS011;52145;49.342;9.116;2023-08-12T03:16:25;7.70;;;4.47;;
65535;SDS011;52145;49.342;9.116;2023-08-12T03:18:51;7.07;;;4.30;;
65535;SDS011;52145;49.342;9.116;2023-08-12T03:21:17;6.65;;;3.90;;
65535;SDS011;52145;49.342;9.116;2023-08-12T03:23:43;8.40;;;4.13;;
65535;SDS011;52145;49.342;9.116;2023-08-12T03:26:09;10.30;;;4.20;;
65535;SDS011;52145;49.342;9.116;2023-08-12T03:28:36;6.05;;;4.10;;
65535;SDS011;52145;49.342;9.116;2023-08-12T03:31:02;7.35;;;4.15;;
65535;SDS011;52145;49.342;9.116;2023-08-12T03:33:28;8.38;;;3.95;;
65535;SDS011;52145;49.342;9.116;2023-08-12T03:35:53;7.60;;;4.30;;
65535;SDS011;52145;49.342;9.116;2023-08-12T03:38:19;9.55;;;4.10;;
65535;SDS011;52145;49.342;9.116;2023-08-12T03:40:45;8.57;;;3.78;;
65535;SDS011;52145;49.342;9.116;2023-08-12T03:43:11;5.13;;;3.80;;
65535;SDS011;52145;49.342;9.116;2023-08-12T03:45:41;7.85;;;3.75;;
65535;SDS011;52145;49.342;9.116;2023-08-12T03:48:07;5.53;;;3.83;;
65535;SDS011;52145;49.342;9.116;2023-08-12T03:50:34;8.70;;;3.40;;
65535;SDS011;52145;49.342;9.116;2023-08-12T03:53:00;6.18;;;4.03;;
65535;SDS011;52145;49.342;9.116;2023-08-12T03:55:26;4.53;;;3.38;;
65535;SDS011;52145;49.342;9.116;2023-08-12T03:57:52;9.68;;;3.78;;
65535;SDS011;52145;49.342;9.116;2023-08-12T04:00:18;5.85;;;3.67;;
65535;SDS011;52145;49.342;9.116;2023-08-12T05:54:00;7.93;;;4.07;;
65535;SDS011;52145;49.342;9.116;2023-08-12T05:56:26;7.45;;;3.78;;
65535;SDS011;52145;49.342;9.116;2023-08-12T05:58:52;8.25;;;3.80;;
65535;SDS011;52145;49.342;9.116;2023-08-12T06:01:18;8.90;;;4.25;;
65535;SDS011;52145;49.342;9.116;2023-08-12T06:28:13;4.78;;;3.42;;
65535;SDS011;52145;49.342;9.116;2023-08-12T06:30:39;6.28;;;3.97;;
65535;SDS011;52145;49.342;9.116;2023-08-12T06:33:05;8.07;;;4.35;;
65535;SDS011;52145;49.342;9.116;2023-08-12T06:35:31;10.98;;;4.30;;
65535;SDS011;52145;49.342;9.116;2023-08-12T06:37:57;5.57;;;4.03;;
65535;SDS011;52145;49.342;9.116;2023-08-12T06:40:23;6.53;;;4.22;;
65535;SDS011;52145;49.342;9.116;2023-08-12T06:42:49;7.63;;;4.13;;
65535;SDS011;52145;49.342;9.116;2023-08-12T06:45:15;6.30;;;3.90;;
65535;SDS011;52145;49.342;9.116;2023-08-12T06:47:41;9.88;;;3.80;;
65535;SDS011;52145;49.342;9.116;2023-08-12T06:50:07;8.15;;;3.28;;
65535;SDS011;52145;49.342;9.116;2023-08-12T06:52:33;5.70;;;4.05;;
65535;SDS011;52145;49.342;9.116;2023-08-12T06:54:59;8.18;;;3.50;;
65535;SDS011;52145;49.342;9.116;2023-08-12T06:57:25;5.78;;;3.72;;
65535;SDS011;52145;49.342;9.116;2023-08-12T06:59:51;6.40;;;3.80;;
65535;SDS011;52145;49.342;9.116;2023-08-12T07:02:17;7.28;;;3.95;;
65535;SDS011;52145;49.342;9.116;2023-08-12T07:04:43;5.50;;;3.45;;
65535;SDS011;52145;49.342;9.116;2023-08-12T07:07:09;7.75;;;3.70;;
65535;SDS011;52145;49.342;9.116;2023-08-12T07:09:35;7.63;;;4.13;;
65535;SDS011;52145;49.342;9.116;2023-08-12T07:12:01;7.38;;;3.72;;
65535;SDS011;52145;49.342;9.116;2023-08-12T07:14:27;6.22;;;3.85;;
65535;SDS011;52145;49.342;9.116;2023-08-12T07:16:53;6.35;;;3.10;;
65535;SDS011;52145;49.342;9.116;2023-08-12T07:19:20;7.82;;;3.53;;
65535;SDS011;52145;49.342;9.116;2023-08-12T07:21:45;6.78;;;3.63;;
65535;SDS011;52145;49.342;9.116;2023-08-12T07:24:11;5.57;;;3.63;;
65535;SDS011;52145;49.342;9.116;2023-08-12T07:26:37;5.30;;;3.78;;
65535;SDS011;52145;49.342;9.116;2023-08-12T07:29:03;8.32;;;3.97;;
65535;SDS011;52145;49.342;9.116;2023-08-12T07:31:29;10.40;;;4.13;;
65535;SDS011;52145;49.342;9.116;2023-08-12T07:33:55;6.65;;;3.85;;
65535;SDS011;52145;49.342;9.116;2023-08-12T07:36:21;5.00;;;3.40;;
65535;SDS011;52145;49.342;9.116;2023-08-12T07:38:47;6.60;;;3.80;;
65535;SDS011;52145;49.342;9.116;2023-08-12T07:41:13;6.70;;;4.03;;
65535;SDS011;52145;49.342;9.116;2023-08-12T07:43:39;6.18;;;4.07;;
65535;SDS011;52145;49.342;9.116;2023-08-12T07:46:05;6.63;;;4.18;;
65535;SDS011;52145;49.342;9.116;2023-08-12T07:48:31;7.60;;;4.05;;
65535;SDS011;52145;49.342;9.116;2023-08-12T07:50:57;7.00;;;4.38;;
65535;SDS011;52145;49.342;9.116;2023-08-12T07:53:23;7.10;;;3.97;;
65535;SDS011;52145;49.342;9.116;2023-08-12T07:55:50;12.05;;;3.97;;
65535;SDS011;52145;49.342;9.116;2023-08-12T07:58:16;9.57;;;3.92;;
65535;SDS011;52145;49.342;9.116;2023-08-12T08:00:42;6.53;;;4.10;;
65535;SDS011;52145;49.342;9.116;2023-08-12T08:03:08;7.38;;;3.95;;
65535;SDS011;52145;49.342;9.116;2023-08-12T08:05:34;10.05;;;4.70;;
65535;SDS011;52145;49.342;9.116;2023-08-12T08:08:00;6.55;;;4.15;;
65535;SDS011;52145;49.342;9.116;2023-08-12T08:10:25;7.40;;;4.20;;
65535;SDS011;52145;49.342;9.116;2023-08-12T08:12:51;6.82;;;4.40;;
65535;SDS011;52145;49.342;9.116;2023-08-12T08:15:18;8.10;;;4.05;;
65535;SDS011;52145;49.342;9.116;2023-08-12T08:17:44;7.38;;;4.25;;
65535;SDS011;52145;49.342;9.116;2023-08-12T08:20:10;6.25;;;3.90;;
65535;SDS011;52145;49.342;9.116;2023-08-12T08:22:36;6.78;;;4.30;;
65535;SDS011;52145;49.342;9.116;2023-08-12T08:25:02;7.70;;;3.97;;
65535;SDS011;52145;49.342;9.116;2023-08-12T08:27:28;7.00;;;4.07;;
65535;SDS011;52145;49.342;9.116;2023-08-12T08:29:54;5.28;;;3.70;;
65535;SDS011;52145;49.342;9.116;2023-08-12T08:32:19;6.63;;;3.95;;
65535;SDS011;52145;49.342;9.116;2023-08-12T08:34:45;6.50;;;4.18;;
65535;SDS011;52145;49.342;9.116;2023-08-12T08:37:11;6.78;;;4.25;;
65535;SDS011;52145;49.342;9.116;2023-08-12T08:39:37;5.82;;;3.75;;
65535;SDS011;52145;49.342;9.116;2023-08-12T08:42:04;8.13;;;4.45;;
65535;SDS011;52145;49.342;9.116;2023-08-12T08:44:31;7.38;;;4.50;;
65535;SDS011;52145;49.342;9.116;2023-08-12T08:46:58;9.70;;;4.38;;
65535;SDS011;52145;49.342;9.116;2023-08-12T08:49:25;7.85;;;4.65;;
65535;SDS011;52145;49.342;9.116;2023-08-12T08:51:51;6.97;;;4.03;;
65535;SDS011;52145;49.342;9.116;2023-08-12T08:54:18;7.15;;;4.75;;
65535;SDS011;52145;49.342;9.116;2023-08-12T08:56:45;8.15;;;4.43;;
65535;SDS011;52145;49.342;9.116;2023-08-12T08:59:11;6.20;;;4.47;;
65535;SDS011;52145;49.342;9.116;2023-08-12T09:01:37;6.28;;;4.50;;
65535;SDS011;52145;49.342;9.116;2023-08-12T09:04:03;10.43;;;4.78;;
65535;SDS011;52145;49.342;9.116;2023-08-12T09:06:29;7.10;;;4.75;;
65535;SDS011;52145;49.342;9.116;2023-08-12T09:08:56;8.98;;;4.57;;
65535;SDS011;52145;49.342;9.116;2023-08-12T09:11:22;10.20;;;5.00;;
65535;SDS011;52145;49.342;9.116;2023-08-12T09:13:48;7.65;;;4.57;;
65535;SDS011;52145;49.342;9.116;2023-08-12T09:16:15;7.90;;;4.47;;
65535;SDS011;52145;49.342;9.116;2023-08-12T09:18:44;9.75;;;4.35;;
65535;SDS011;52145;49.342;9.116;2023-08-12T09:21:10;8.15;;;4.45;;
65535;SDS011;52145;49.342;9.116;2023-08-12T09:23:39;7.97;;;5.40;;
65535;SDS011;52145;49.342;9.116;2023-08-12T09:26:12;8.50;;;4.30;;
65535;SDS011;52145;49.342;9.116;2023-08-12T09:28:39;6.63;;;4.20;;
65535;SDS011;52145;49.342;9.116;2023-08-12T09:31:05;5.93;;;4.30;;
65535;SDS011;52145;49.342;9.116;2023-08-12T09:33:32;6.15;;;4.38;;
65535;SDS011;52145;49.342;9.116;2023-08-12T09:35:57;5.65;;;4.32;;
65535;SDS011;52145;49.342;9.116;2023-08-12T09:38:23;9.80;;;5.00;;
65535;SDS011;52145;49.342;9.116;2023-08-12T09:40:51;7.72;;;4.85;;
65535;SDS011;52145;49.342;9.116;2023-08-12T09:43:18;10.32;;;5.38;;
65535;SDS011;52145;49.342;9.116;2023-08-12T09:45:48;9.55;;;4.78;;
65535;SDS011;52145;49.342;9.116;2023-08-12T09:48:16;8.52;;;4.72;;
65535;SDS011;52145;49.342;9.116;2023-08-12T09:50:42;7.15;;;4.57;;
65535;SDS011;52145;49.342;9.116;2023-08-12T09:53:08;11.85;;;4.90;;
65535;SDS011;52145;49.342;9.116;2023-08-12T09:55:34;11.02;;;5.00;;
65535;SDS011;52145;49.342;9.116;2023-08-12T09:58:01;8.00;;;4.28;;
65535;SDS011;52145;49.342;9.116;2023-08-12T10:00:30;9.50;;;4.70;;
65535;SDS011;52145;49.342;9.116;2023-08-12T10:02:56;7.22;;;5.25;;
65535;SDS011;52145;49.342;9.116;2023-08-12T10:05:24;8.75;;;5.45;;
65535;SDS011;52145;49.342;9.116;2023-08-12T10:07:53;7.63;;;4.70;;
65535;SDS011;52145;49.342;9.116;2023-08-12T10:10:20;8.00;;;4.95;;
65535;SDS011;52145;49.342;9.116;2023-08-12T10:12:47;7.15;;;4.60;;
65535;SDS011;52145;49.342;9.116;2023-08-12T10:15:13;8.02;;;5.07;;
65535;SDS011;52145;49.342;9.116;2023-08-12T10:17:43;5.72;;;4.47;;
65535;SDS011;52145;49.342;9.116;2023-08-12T10:20:12;5.50;;;4.57;;
65535;SDS011;52145;49.342;9.116;2023-08-12T10:22:39;9.63;;;4.82;;
65535;SDS011;52145;49.342;9.116;2023-08-12T10:25:07;8.82;;;4.90;;
65535;SDS011;52145;49.342;9.116;2023-08-12T10:27:36;5.40;;;4.20;;
65535;SDS011;52145;49.342;9.116;2023-08-12T10:30:06;6.78;;;5.00;;
65535;SDS011;52145;49.342;9.116;2023-08-12T10:32:33;11.38;;;4.38;;
65535;SDS011;52145;49.342;9.116;2023-08-12T10:34:59;6.13;;;3.88;;
65535;SDS011;52145;49.342;9.116;2023-08-12T10:37:25;7.32;;;4.90;;
65535;SDS011;52145;49.342;9.116;2023-08-12T10:39:52;8.23;;;4.40;;
65535;SDS011;52145;49.342;9.116;2023-08-12T10:45:03;6.25;;;4.85;;
65535;SDS011;52145;49.342;9.116;2023-08-12T10:47:32;9.25;;;4.65;;
65535;SDS011;52145;49.342;9.116;2023-08-12T10:49:59;6.03;;;4.35;;
65535;SDS011;52145;49.342;9.116;2023-08-12T10:52:30;6.93;;;5.07;;
65535;SDS011;52145;49.342;9.116;2023-08-12T10:55:16;5.93;;;4.50;;
65535;SDS011;52145;49.342;9.116;2023-08-12T10:57:43;6.38;;;4.40;;
65535;SDS011;52145;49.342;9.116;2023-08-12T11:00:19;6.97;;;4.47;;
65535;SDS011;52145;49.342;9.116;2023-08-12T11:02:48;9.85;;;4.45;;
65535;SDS011;52145;49.342;9.116;2023-08-12T11:05:15;8.38;;;4.43;;
65535;SDS011;52145;49.342;9.116;2023-08-12T11:08:05;8.30;;;4.45;;
65535;SDS011;52145;49.342;9.116;2023-08-12T11:10:31;6.60;;;4.18;;
65535;SDS011;52145;49.342;9.116;2023-08-12T11:12:58;8.13;;;4.15;;
65535;SDS011;52145;49.342;9.116;2023-08-12T11:15:31;7.45;;;4.50;;
65535;SDS011;52145;49.342;9.116;2023-08-12T11:18:02;6.68;;;4.10;;
65535;SDS011;52145;49.342;9.116;2023-08-12T11:20:30;7.22;;;3.92;;
65535;SDS011;52145;49.342;9.116;2023-08-12T11:22:56;5.28;;;3.97;;
65535;SDS011;52145;49.342;9.116;2023-08-12T11:25:27;5.80;;;3.95;;
65535;SDS011;52145;49.342;9.116;2023-08-12T11:27:53;5.35;;;4.20;;
65535;SDS011;52145;49.342;9.116;2023-08-12T11:30:20;5.78;;;3.90;;
65535;SDS011;52145;49.342;9.116;2023-08-12T11:32:47;6.32;;;4.40;;
65535;SDS011;52145;49.342;9.116;2023-08-12T11:35:14;5.47;;;4.25;;
65535;SDS011;52145;49.342;9.116;2023-08-12T11:37:42;5.70;;;4.20;;
65535;SDS011;52145;49.342;9.116;2023-08-12T11:40:09;7.95;;;4.88;;
65535;SDS011;52145;49.342;9.116;2023-08-12T11:42:35;5.75;;;4.18;;
65535;SDS011;52145;49.342;9.116;2023-08-12T11:45:02;6.95;;;4.70;;
65535;SDS011;52145;49.342;9.116;2023-08-12T11:47:28;6.93;;;4.40;;
65535;SDS011;52145;49.342;9.116;2023-08-12T11:49:54;5.60;;;4.13;;
65535;SDS011;52145;49.342;9.116;2023-08-12T11:52:20;9.77;;;4.38;;
65535;SDS011;52145;49.342;9.116;2023-08-12T11:54:47;7.50;;;4.95;;
65535;SDS011;52145;49.342;9.116;2023-08-12T11:57:13;9.15;;;5.50;;
65535;SDS011;52145;49.342;9.116;2023-08-12T11:59:39;9.75;;;4.55;;
65535;SDS011;52145;49.342;9.116;2023-08-12T12:02:05;7.35;;;4.57;;
65535;SDS011;52145;49.342;9.116;2023-08-12T12:04:31;7.90;;;4.25;;
65535;SDS011;52145;49.342;9.116;2023-08-12T12:06:57;7.95;;;4.95;;
65535;SDS011;52145;49.342;9.116;2023-08-12T12:09:24;7.70;;;5.32;;
65535;SDS011;52145;49.342;9.116;2023-08-12T12:11:55;7.57;;;5.20;;
65535;SDS011;52145;49.342;9.116;2023-08-12T12:14:21;7.18;;;5.20;;
65535;SDS011;52145;49.342;9.116;2023-08-12T12:16:48;6.50;;;4.75;;
65535;SDS011;52145;49.342;9.116;2023-08-12T12:19:21;8.82;;;5.32;;
65535;SDS011;52145;49.342;9.116;2023-08-12T12:21:51;7.35;;;5.30;;
65535;SDS011;52145;49.342;9.116;2023-08-12T12:24:17;8.55;;;5.80;;
65535;SDS011;52145;49.342;9.116;2023-08-12T12:26:44;9.60;;;5.38;;
65535;SDS011;52145;49.342;9.116;2023-08-12T12:29:10;8.75;;;5.57;;
65535;SDS011;52145;49.342;9.116;2023-08-12T12:31:39;9.05;;;5.22;;
65535;SDS011;52145;49.342;9.116;2023-08-12T12:34:06;8.90;;;5.80;;
65535;SDS011;52145;49.342;9.116;2023-08-12T12:36:33;10.85;;;5.97;;
65535;SDS011;52145;49.342;9.116;2023-08-12T12:39:00;7.68;;;5.45;;
65535;SDS011;52145;49.342;9.116;2023-08-12T12:41:26;9.63;;;5.38;;
65535;SDS011;52145;49.342;9.116;2023-08-12T12:43:51;8.73;;;5.72;;
65535;SDS011;52145;49.342;9.116;2023-08-12T12:46:17;10.68;;;6.05;;
65535;SDS011;52145;49.342;9.116;2023-08-12T12:48:43;10.38;;;5.85;;
65535;SDS011;52145;49.342;9.116;2023-08-12T12:51:10;7.72;;;6.10;;
65535;SDS011;52145;49.342;9.116;2023-08-12T12:53:36;7.85;;;5.60;;
65535;SDS011;52145;49.342;9.116;2023-08-12T12:56:02;7.32;;;5.50;;
65535;SDS011;52145;49.342;9.116;2023-08-12T12:58:31;7.43;;;4.85;;
65535;SDS011;52145;49.342;9.116;2023-08-12T13:00:58;7.32;;;4.93;;
65535;SDS011;52145;49.342;9.116;2023-08-12T13:03:24;7.53;;;5.07;;
65535;SDS011;52145;49.342;9.116;2023-08-12T13:05:50;5.40;;;4.13;;
65535;SDS011;52145;49.342;9.116;2023-08-12T13:08:16;7.65;;;4.30;;
65535;SDS011;52145;49.342;9.116;2023-08-12T13:10:42;7.93;;;4.60;;
65535;SDS011;52145;49.342;9.116;2023-08-12T13:13:08;8.27;;;4.07;;
65535;SDS011;52145;49.342;9.116;2023-08-12T13:15:34;6.03;;;3.70;;
65535;SDS011;52145;49.342;9.116;2023-08-12T13:18:01;6.50;;;4.10;;
65535;SDS011;52145;49.342;9.116;2023-08-12T13:20:27;4.78;;;3.72;;
65535;SDS011;52145;49.342;9.116;2023-08-12T13:22:54;5.45;;;4.05;;
65535;SDS011;52145;49.342;9.116;2023-08-12T13:25:19;3.72;;;2.97;;
65535;SDS011;52145;49.342;9.116;2023-08-12T13:27:45;6.75;;;3.67;;
65535;SDS011;52145;49.342;9.116;2023-08-12T13:30:11;4.97;;;3.20;;
65535;SDS011;52145;49.342;9.116;2023-08-12T13:32:37;6.88;;;3.10;;
65535;SDS011;52145;49.342;9.116;2023-08-12T13:35:04;4.45;;;2.85;;
65535;SDS011;52145;49.342;9.116;2023-08-12T13:37:30;3.45;;;2.40;;
65535;SDS011;52145;49.342;9.116;2023-08-12T13:39:56;4.53;;;2.47;;
65535;SDS011;52145;49.342;9.116;2023-08-12T13:42:22;4.50;;;2.63;;
65535;SDS011;52145;49.342;9.116;2023-08-12T13:44:48;4.10;;;2.50;;
65535;SDS011;52145;49.342;9.116;2023-08-12T13:47:14;5.70;;;2.90;;
65535;SDS011;52145;49.342;9.116;2023-08-12T13:49:40;4.53;;;2.60;;
65535;SDS011;52145;49.342;9.116;2023-08-12T13:52:06;4.15;;;2.83;;
65535;SDS011;52145;49.342;9.116;2023-08-12T13:54:31;3.53;;;2.53;;
65535;SDS011;52145;49.342;9.116;2023-08-12T13:56:58;5.30;;;2.45;;
65535;SDS011;52145;49.342;9.116;2023-08-12T13:59:25;3.65;;;2.50;;
65535;SDS011;52145;49.342;9.116;2023-08-12T14:01:51;5.60;;;4.00;;
65535;SDS011;52145;49.342;9.116;2023-08-12T14:04:16;4.43;;;3.13;;
65535;SDS011;52145;49.342;9.116;2023-08-12T14:06:42;3.58;;;2.60;;
65535;SDS011;52145;49.342;9.116;2023-08-12T14:09:08;8.18;;;3.33;;
65535;SDS011;52145;49.342;9.116;2023-08-12T14:11:37;5.65;;;3.00;;
65535;SDS011;52145;49.342;9.116;2023-08-12T14:14:03;7.53;;;3.65;;
65535;SDS011;52145;49.342;9.116;2023-08-12T14:16:29;6.88;;;3.47;;
65535;SDS011;52145;49.342;9.116;2023-08-12T14:18:54;11.55;;;8.80;;
65535;SDS011;52145;49.342;9.116;2023-08-12T14:21:20;6.00;;;3.05;;
65535;SDS011;52145;49.342;9.116;2023-08-12T14:23:46;7.47;;;3.28;;
65535;SDS011;52145;49.342;9.116;2023-08-12T14:26:12;6.22;;;4.00;;
65535;SDS011;52145;49.342;9.116;2023-08-12T14:28:38;6.50;;;3.40;;
65535;SDS011;52145;49.342;9.116;2023-08-12T14:31:04;6.78;;;4.70;;
65535;SDS011;52145;49.342;9.116;2023-08-12T14:33:31;6.05;;;3.35;;
65535;SDS011;52145;49.342;9.116;2023-08-12T14:35:57;5.22;;;3.20;;
65535;SDS011;52145;49.342;9.116;2023-08-12T14:38:23;5.85;;;3.58;;
65535;SDS011;52145;49.342;9.116;2023-08-12T14:40:49;7.03;;;3.15;;
65535;SDS011;52145;49.342;9.116;2023-08-12T14:43:15;8.35;;;3.08;;
65535;SDS011;52145;49.342;9.116;2023-08-12T14:45:44;8.25;;;4.72;;
65535;SDS011;52145;49.342;9.116;2023-08-12T14:48:13;5.68;;;3.78;;
65535;SDS011;52145;49.342;9.116;2023-08-12T14:50:43;4.32;;;3.30;;
65535;SDS011;52145;49.342;9.116;2023-08-12T14:53:09;9.57;;;3.70;;
65535;SDS011;52145;49.342;9.116;2023-08-12T14:55:35;5.00;;;3.53;;
65535;SDS011;52145;49.342;9.116;2023-08-12T14:58:01;6.72;;;3.90;;
65535;SDS011;52145;49.342;9.116;2023-08-12T15:00:27;6.20;;;3.95;;
65535;SDS011;52145;49.342;9.116;2023-08-12T15:02:53;6.95;;;4.40;;
65535;SDS011;52145;49.342;9.116;2023-08-12T15:05:19;8.48;;;4.80;;
65535;SDS011;52145;49.342;9.116;2023-08-12T15:07:45;7.65;;;4.13;;
65535;SDS011;52145;49.342;9.116;2023-08-12T15:10:10;6.65;;;3.97;;
65535;SDS011;52145;49.342;9.116;2023-08-12T15:12:36;7.78;;;4.15;;
65535;SDS011;52145;49.342;9.116;2023-08-12T15:15:02;10.82;;;4.93;;
65535;SDS011;52145;49.342;9.116;2023-08-12T15:17:28;11.98;;;5.65;;
65535;SDS011;52145;49.342;9.116;2023-08-12T15:19:54;8.90;;;5.70;;
65535;SDS011;52145;49.342;9.116;2023-08-12T15:22:20;11.18;;;5.78;;
65535;SDS011;52145;49.342;9.116;2023-08-12T15:24:46;10.23;;;5.82;;
65535;SDS011;52145;49.342;9.116;2023-08-12T15:27:12;9.88;;;6.50;;
65535;SDS011;52145;49.342;9.116;2023-08-12T15:29:38;9.50;;;5.78;;
65535;SDS011;52145;49.342;9.116;2023-08-12T15:32:04;7.57;;;4.25;;
65535;SDS011;52145;49.342;9.116;2023-08-12T15:34:30;9.63;;;5.20;;
65535;SDS011;52145;49.342;9.116;2023-08-12T15:36:56;11.48;;;5.40;;
65535;SDS011;52145;49.342;9.116;2023-08-12T15:39:22;8.30;;;4.55;;
65535;SDS011;52145;49.342;9.116;2023-08-12T15:41:48;10.25;;;5.40;;
65535;SDS011;52145;49.342;9.116;2023-08-12T15:44:14;10.38;;;5.45;;
65535;SDS011;52145;49.342;9.116;2023-08-12T15:46:40;8.48;;;5.30;;
65535;SDS011;52145;49.342;9.116;2023-08-12T15:49:07;9.98;;;6.35;;
65535;SDS011;52145;49.342;9.116;2023-08-12T15:51:36;7.78;;;5.18;;
65535;SDS011;52145;49.342;9.116;2023-08-12T15:54:02;9.55;;;6.22;;
65535;SDS011;52145;49.342;9.116;2023-08-12T15:56:28;9.25;;;5.43;;
65535;SDS011;52145;49.342;9.116;2023-08-12T15:58:54;10.05;;;5.90;;
65535;SDS011;52145;49.342;9.116;2023-08-12T16:01:20;13.32;;;5.47;;
65535;SDS011;52145;49.342;9.116;2023-08-12T16:03:46;8.07;;;4.80;;
65535;SDS011;52145;49.342;9.116;2023-08-12T16:06:12;9.05;;;4.97;;
65535;SDS011;52145;49.342;9.116;2023-08-12T16:08:38;8.90;;;5.28;;
65535;SDS011;52145;49.342;9.116;2023-08-12T16:11:04;9.48;;;7.30;;
65535;SDS011;52145;49.342;9.116;2023-08-12T16:13:30;7.53;;;4.60;;
65535;SDS011;52145;49.342;9.116;2023-08-12T16:15:57;7.68;;;5.85;;
65535;SDS011;52145;49.342;9.116;2023-08-12T16:18:23;8.23;;;5.47;;
65535;SDS011;52145;49.342;9.116;2023-08-12T16:20:49;9.93;;;5.35;;
65535;SDS011;52145;49.342;9.116;2023-08-12T16:23:15;9.40;;;5.47;;
65535;SDS011;52145;49.342;9.116;2023-08-12T16:25:41;9.00;;;5.30;;
65535;SDS011;52145;49.342;9.116;2023-08-12T16:28:07;7.80;;;5.20;;
65535;SDS011;52145;49.342;9.116;2023-08-12T16:30:33;7.43;;;5.30;;
65535;SDS011;52145;49.342;9.116;2023-08-12T16:32:59;9.48;;;4.88;;
65535;SDS011;52145;49.342;9.116;2023-08-12T16:35:26;8.48;;;5.25;;
65535;SDS011;52145;49.342;9.116;2023-08-12T16:37:52;8.13;;;4.95;;
65535;SDS011;52145;49.342;9.116;2023-08-12T16:40:18;7.90;;;5.78;;
65535;SDS011;52145;49.342;9.116;2023-08-12T16:42:44;8.20;;;6.00;;
65535;SDS011;52145;49.342;9.116;2023-08-12T16:45:11;9.00;;;5.90;;
65535;SDS011;52145;49.342;9.116;2023-08-12T16:47:40;7.05;;;5.57;;
65535;SDS011;52145;49.342;9.116;2023-08-12T16:50:06;10.05;;;5.93;;
65535;SDS011;52145;49.342;9.116;2023-08-12T16:52:32;8.90;;;6.30;;
65535;SDS011;52145;49.342;9.116;2023-08-12T16:54:58;8.68;;;5.38;;
65535;SDS011;52145;49.342;9.116;2023-08-12T16:57:24;7.13;;;5.20;;
65535;SDS011;52145;49.342;9.116;2023-08-12T16:59:50;8.90;;;5.38;;
65535;SDS011;52145;49.342;9.116;2023-08-12T17:02:16;12.65;;;7.47;;